Time;durP1;ratioP1;P1;durP2;ratioP2;P2;SDS_P1;SDS_P2;PMS_P1;PMS_P2;Temp;Humidity;BMP_temperature;BMP_pressure;BME280_temperature;BME280_humidity;BME280_pressure;Samples;Min_cycle;Max_cycle;Signal;HPM_P1;HPM_P2
2021/07/29 00:02:04;;;;;;;12.28;7.15;;;;;;;19.51;66.79;100056.63;128567;1095;24259;-77
2021/07/29 00:04:33;;;;;;;8.35;7.13;;;;;;;19.49;67.06;100057.91;128605;1094;22343;-77
2021/07/29 00:07:03;;;;;;;7.80;7.10;;;;;;;19.47;67.20;100055.48;128607;1095;22448;-77
2021/07/29 00:09:33;;;;;;;12.75;9.98;;;;;;;19.50;67.02;100064.92;128612;1093;23287;-77
2021/07/29 00:12:03;;;;;;;10.03;9.00;;;;;;;19.47;67.11;100054.67;128642;1095;22382;-77
2021/07/29 00:14:33;;;;;;;11.38;10.20;;;;;;;19.46;66.92;100050.34;128241;1095;22363;-78
2021/07/29 00:17:06;;;;;;;16.80;12.40;;;;;;;19.43;67.18;100054.32;128561;1095;24496;-78
2021/07/29 00:19:35;;;;;;;12.38;9.45;;;;;;;19.43;67.22;100056.19;128552;1095;22414;-78
2021/07/29 00:22:05;;;;;;;8.93;7.93;;;;;;;19.41;67.41;100053.73;128565;1094;24993;-75
2021/07/29 00:24:34;;;;;;;9.98;8.88;;;;;;;19.41;67.44;100051.05;128612;1093;22340;-77
2021/07/29 00:27:04;;;;;;;12.03;7.58;;;;;;;19.39;67.72;100047.80;128563;1095;22363;-76
2021/07/29 00:29:34;;;;;;;9.35;7.23;;;;;;;19.36;67.60;100056.30;128626;1095;24509;-75
2021/07/29 00:32:07;;;;;;;10.18;7.50;;;;;;;19.34;68.17;100052.22;128316;1095;22364;-75
2021/07/29 00:34:36;;;;;;;9.80;7.25;;;;;;;19.32;68.02;100055.11;128271;1095;22474;-76
2021/07/29 00:37:07;;;;;;;11.50;7.65;;;;;;;19.31;68.33;100060.72;128634;1093;24231;-76
2021/07/29 00:39:37;;;;;;;11.75;9.05;;;;;;;19.30;68.56;100051.88;128580;1095;24486;-77
2021/07/29 00:42:06;;;;;;;12.80;7.90;;;;;;;19.30;68.56;100056.42;128575;1095;22345;-77
2021/07/29 00:44:37;;;;;;;10.55;7.38;;;;;;;19.28;68.44;100057.45;128589;1095;24526;-76
2021/07/29 00:47:08;;;;;;;9.55;7.73;;;;;;;19.26;68.93;100056.88;128268;1095;22368;-76
2021/07/29 00:49:38;;;;;;;8.43;7.68;;;;;;;19.26;68.71;100056.88;128537;1095;22343;-76
2021/07/29 00:52:08;;;;;;;11.58;8.70;;;;;;;19.23;68.91;100062.70;128580;1093;22359;-76
2021/07/29 00:54:37;;;;;;;16.43;8.63;;;;;;;19.21;68.96;100054.06;128622;1095;22353;-77
2021/07/29 00:57:09;;;;;;;9.18;8.35;;;;;;;19.19;69.44;100061.53;128548;1095;22368;-77
2021/07/29 00:59:39;;;;;;;9.53;8.50;;;;;;;19.15;69.27;100057.66;128610;1095;22385;-76
2021/07/29 01:02:09;;;;;;;10.53;8.87;;;;;;;19.14;69.55;100057.91;128582;1095;24512;-77
2021/07/29 01:04:39;;;;;;;13.70;9.50;;;;;;;19.12;69.54;100050.09;128297;1095;24227;-77
2021/07/29 01:07:09;;;;;;;10.78;9.65;;;;;;;19.10;69.51;100052.20;128558;1095;22342;-77
2021/07/29 01:09:41;;;;;;;11.65;10.40;;;;;;;19.10;69.48;100046.04;128210;1095;22362;-77
2021/07/29 01:12:11;;;;;;;15.75;10.15;;;;;;;19.09;69.92;100036.36;128630;1093;24235;-77
2021/07/29 01:14:41;;;;;;;11.53;10.43;;;;;;;19.07;69.91;100046.50;128657;1093;22343;-78
2021/07/29 01:17:10;;;;;;;11.28;9.98;;;;;;;19.05;69.83;100046.71;128274;1095;22353;-78
2021/07/29 01:19:40;;;;;;;11.68;10.55;;;;;;;19.03;70.27;100052.31;128587;1095;22874;-78
2021/07/29 01:22:10;;;;;;;13.00;11.65;;;;;;;19.03;70.12;100041.60;128289;1095;22347;-78
2021/07/29 01:24:39;;;;;;;13.73;11.40;;;;;;;19.03;70.16;100035.44;128237;1095;22340;-77
2021/07/29 01:27:09;;;;;;;11.43;10.53;;;;;;;19.01;70.01;100045.55;128255;1093;22362;-77
2021/07/29 01:29:39;;;;;;;10.15;9.33;;;;;;;18.97;70.27;100037.16;128568;1094;22344;-77
2021/07/29 01:32:08;;;;;;;10.83;9.93;;;;;;;18.96;70.26;100040.90;128605;1095;22363;-77
2021/07/29 01:34:38;;;;;;;10.70;9.70;;;;;;;18.96;70.29;100035.55;128621;1094;22373;-77
2021/07/29 01:37:08;;;;;;;12.03;10.03;;;;;;;18.94;70.51;100037.63;128533;1095;25005;-78
2021/07/29 01:39:37;;;;;;;12.90;10.53;;;;;;;18.92;70.66;100039.70;128541;1095;22348;-78
2021/07/29 01:42:07;;;;;;;10.98;9.88;;;;;;;18.90;70.17;100038.33;128569;1095;24237;-78
2021/07/29 01:44:36;;;;;;;9.78;8.95;;;;;;;18.87;70.59;100047.63;128595;1095;22328;-78
2021/07/29 01:47:06;;;;;;;11.93;10.05;;;;;;;18.85;70.79;100039.00;128268;1095;22359;-78
2021/07/29 01:49:36;;;;;;;15.50;10.43;;;;;;;18.80;70.59;100045.05;128528;1095;22381;-78
2021/07/29 01:52:06;;;;;;;11.95;9.50;;;;;;;18.77;70.69;100048.18;128275;1093;22375;-78
2021/07/29 01:54:36;;;;;;;12.28;10.15;;;;;;;18.76;70.78;100043.88;128566;1095;24237;-78
2021/07/29 01:57:07;;;;;;;10.25;9.35;;;;;;;18.76;71.06;100049.23;128587;1093;22387;-77
2021/07/29 01:59:37;;;;;;;18.78;10.88;;;;;;;18.76;71.01;100041.20;128616;1095;22350;-77
2021/07/29 02:02:06;;;;;;;12.63;10.75;;;;;;;18.76;70.92;100045.72;128261;1095;22344;-77
2021/07/29 02:04:36;;;;;;;12.85;10.38;;;;;;;18.76;71.07;100048.39;128565;1095;24975;-78
2021/07/29 02:07:06;;;;;;;11.38;9.23;;;;;;;18.74;71.19;100053.17;128560;1095;22356;-77
2021/07/29 02:09:36;;;;;;;12.35;9.60;;;;;;;18.72;71.33;100049.90;128586;1093;24991;-77
2021/07/29 02:12:06;;;;;;;15.85;10.73;;;;;;;18.70;71.30;100055.46;128278;1095;22661;-76
2021/07/29 02:14:35;;;;;;;12.13;9.15;;;;;;;18.68;71.47;100057.54;128572;1095;22344;-77
2021/07/29 02:17:05;;;;;;;12.15;10.58;;;;;;;18.67;71.20;100047.89;128580;1094;22781;-76
2021/07/29 02:19:34;;;;;;;11.98;9.48;;;;;;;18.65;71.45;100054.50;128561;1095;22340;-76
2021/07/29 02:22:04;;;;;;;11.08;9.70;;;;;;;18.64;71.43;100056.37;128626;1093;22358;-76
2021/07/29 02:24:34;;;;;;;14.48;9.48;;;;;;;18.63;72.14;100056.61;128581;1095;22360;-77
2021/07/29 02:27:04;;;;;;;11.45;9.13;;;;;;;18.58;71.29;100054.59;128617;1095;22343;-77
2021/07/29 02:29:33;;;;;;;12.98;9.38;;;;;;;18.58;71.78;100054.59;128583;1093;23302;-77
2021/07/29 02:32:03;;;;;;;13.43;10.07;;;;;;;18.56;71.67;100062.05;128602;1095;22339;-76
2021/07/29 02:34:33;;;;;;;13.35;9.23;;;;;;;18.53;71.60;100052.61;128373;1095;22350;-76
2021/07/29 02:37:03;;;;;;;14.23;10.67;;;;;;;18.52;71.85;100063.52;128613;1093;22363;-76
2021/07/29 02:39:33;;;;;;;10.13;9.10;;;;;;;18.49;71.97;100066.66;128646;1093;22340;-76
2021/07/29 02:42:03;;;;;;;12.10;10.30;;;;;;;18.48;72.21;100063.16;128649;1095;24466;-76
2021/07/29 02:44:33;;;;;;;11.80;9.53;;;;;;;18.47;72.02;100058.87;128576;1093;22344;-77
2021/07/29 02:47:03;;;;;;;12.45;9.88;;;;;;;18.46;71.87;100059.08;128576;1095;22348;-76
2021/07/29 02:49:33;;;;;;;11.53;10.40;;;;;;;18.45;72.22;100052.11;128321;1095;22343;-76
2021/07/29 02:52:03;;;;;;;11.23;9.98;;;;;;;18.45;72.37;100068.16;128273;1095;22356;-76
2021/07/29 02:54:34;;;;;;;11.33;9.68;;;;;;;18.43;72.77;100054.21;128300;1095;24173;-76
2021/07/29 02:57:04;;;;;;;10.53;9.38;;;;;;;18.42;72.59;100060.58;128344;1095;22364;-75
2021/07/29 02:59:34;;;;;;;9.97;8.63;;;;;;;18.43;72.61;100057.70;128604;1095;22362;-75
2021/07/29 03:02:04;;;;;;;12.93;9.63;;;;;;;18.44;72.29;100067.34;128622;1095;22332;-76
2021/07/29 03:04:34;;;;;;;11.85;10.60;;;;;;;18.43;72.48;100054.21;128576;1094;22348;-76
2021/07/29 03:07:04;;;;;;;10.35;9.30;;;;;;;18.43;72.76;100062.23;128630;1095;22347;-76
2021/07/29 03:09:33;;;;;;;13.80;10.70;;;;;;;18.43;72.80;100067.58;128633;1095;22340;-76
2021/07/29 03:12:04;;;;;;;14.68;11.68;;;;;;;18.40;72.64;100062.69;128591;1095;22424;-76
2021/07/29 03:14:33;;;;;;;11.75;10.58;;;;;;;18.38;72.78;100062.89;128675;1093;22359;-76
2021/07/29 03:17:04;;;;;;;11.18;9.10;;;;;;;18.39;73.29;100066.38;128323;1095;22350;-77
2021/07/29 03:19:33;;;;;;;13.03;9.65;;;;;;;18.39;72.93;100064.52;128481;1095;23089;-77
2021/07/29 03:22:04;;;;;;;12.25;10.38;;;;;;;18.39;72.78;100063.70;128561;1095;24999;-76
2021/07/29 03:24:37;;;;;;;11.30;9.08;;;;;;;18.39;72.62;100069.05;128623;1095;23922;-76
2021/07/29 03:27:06;;;;;;;14.73;9.50;;;;;;;18.39;73.02;100064.52;128624;1094;24498;-76
2021/07/29 03:29:36;;;;;;;10.48;9.48;;;;;;;18.41;72.76;100069.66;128564;1095;22827;-77
2021/07/29 03:32:07;;;;;;;15.88;9.53;;;;;;;18.39;72.95;100064.52;128424;1095;22340;-77
2021/07/29 03:34:37;;;;;;;10.38;9.18;;;;;;;18.39;72.95;100061.84;128639;1095;22359;-76
2021/07/29 03:37:06;;;;;;;10.08;9.15;;;;;;;18.40;73.11;100058.14;128532;1095;22362;-76
2021/07/29 03:39:36;;;;;;;12.65;9.15;;;;;;;18.41;72.96;100070.47;128600;1093;23132;-76
2021/07/29 03:42:06;;;;;;;12.40;10.45;;;;;;;18.41;72.93;100067.79;128228;1095;22344;-76
2021/07/29 03:44:35;;;;;;;10.08;8.98;;;;;;;18.42;72.72;100068.61;128260;1095;22345;-77
2021/07/29 03:47:05;;;;;;;15.03;10.27;;;;;;;18.43;72.46;100064.91;128527;1095;22343;-77
2021/07/29 03:49:35;;;;;;;11.85;9.78;;;;;;;18.42;72.72;100056.05;128606;1095;23264;-77
2021/07/29 03:52:05;;;;;;;10.43;9.43;;;;;;;18.45;73.10;100054.78;128554;1095;22374;-76
2021/07/29 03:54:35;;;;;;;12.20;9.65;;;;;;;18.45;72.89;100066.29;128531;1095;22341;-77
2021/07/29 03:57:05;;;;;;;12.03;10.08;;;;;;;18.46;72.79;100064.42;128522;1093;25061;-77
2021/07/29 03:59:37;;;;;;;10.23;8.65;;;;;;;18.47;72.71;100064.22;128558;1095;22370;-77
2021/07/29 04:02:09;;;;;;;;;;;;;;;18.44;72.35;100070.02;128611;1095;22343;-77
2021/07/29 04:04:41;;;;;;;9.93;8.88;;;;;;;18.41;72.83;100067.79;128305;1095;23791;-77
2021/07/29 04:07:10;;;;;;;15.75;9.43;;;;;;;18.45;72.92;100060.13;128631;1095;24486;-76
2021/07/29 04:09:40;;;;;;;11.40;9.00;;;;;;;18.48;72.89;100062.36;128593;1095;22362;-76
2021/07/29 04:12:10;;;;;;;10.25;9.23;;;;;;;18.52;72.49;100056.31;128659;1093;22344;-75
2021/07/29 04:14:40;;;;;;;12.37;9.57;;;;;;;18.58;72.78;100057.27;128566;1095;22925;-76
2021/07/29 04:17:10;;;;;;;14.65;9.68;;;;;;;18.62;72.53;100054.95;128595;1095;22344;-76
2021/07/29 04:19:40;;;;;;;11.98;8.60;;;;;;;18.64;72.54;100052.88;128315;1093;22346;-75
2021/07/29 04:22:10;;;;;;;9.70;8.58;;;;;;;18.67;72.57;100057.78;128540;1095;22364;-76
2021/07/29 04:24:40;;;;;;;13.78;8.45;;;;;;;18.71;72.30;100056.27;128294;1095;22362;-75
2021/07/29 04:27:10;;;;;;;10.18;8.93;;;;;;;18.77;72.08;100061.56;128293;1095;23124;-76
2021/07/29 04:29:39;;;;;;;8.85;7.98;;;;;;;18.75;71.71;100074.34;128264;1095;24167;-75
2021/07/29 04:32:09;;;;;;;9.03;7.93;;;;;;;18.74;71.70;100070.04;128570;1095;24509;-74
2021/07/29 04:34:39;;;;;;;9.33;8.30;;;;;;;18.79;71.90;100072.86;128236;1095;24192;-75
2021/07/29 04:37:09;;;;;;;10.43;8.23;;;;;;;18.84;71.47;100072.16;128562;1095;22347;-75
2021/07/29 04:39:42;;;;;;;8.53;7.73;;;;;;;18.87;71.68;100076.25;128265;1095;22359;-74
2021/07/29 04:42:12;;;;;;;9.08;7.73;;;;;;;18.94;71.86;100082.31;128603;1093;24485;-76
2021/07/29 04:44:41;;;;;;;9.55;7.48;;;;;;;19.00;71.45;100081.41;128556;1095;22352;-75
2021/07/29 04:47:15;;;;;;;8.98;7.33;;;;;;;19.09;71.83;100081.87;128527;1095;22353;-75
2021/07/29 04:49:44;;;;;;;8.05;7.13;;;;;;;19.17;71.41;100077.00;128571;1095;22356;-74
2021/07/29 04:52:14;;;;;;;10.95;7.03;;;;;;;19.28;71.27;100081.55;128260;1095;22338;-75
2021/07/29 04:54:43;;;;;;;11.78;8.28;;;;;;;19.43;70.96;100082.98;128256;1095;22375;-74
2021/07/29 04:57:13;;;;;;;9.68;7.73;;;;;;;19.56;70.24;100085.42;128560;1095;22334;-74
2021/07/29 04:59:43;;;;;;;9.45;7.05;;;;;;;19.69;70.37;100095.09;128179;1098;24310;-75
2021/07/29 05:02:17;;;;;;;8.83;7.10;;;;;;;19.80;69.91;100088.93;128164;1098;22385;-75
2021/07/29 05:04:47;;;;;;;8.60;7.20;;;;;;;19.94;69.86;100094.85;128122;1098;22340;-75
2021/07/29 05:07:17;;;;;;;11.58;6.83;;;;;;;20.11;69.18;100094.94;128178;1098;24244;-75
2021/07/29 05:09:46;;;;;;;8.25;6.75;;;;;;;20.30;68.76;100095.59;128160;1098;22359;-75
2021/07/29 05:12:16;;;;;;;7.45;6.08;;;;;;;20.52;68.55;100093.09;128204;1098;22374;-75
2021/07/29 05:14:45;;;;;;;9.68;8.03;;;;;;;20.74;67.87;100087.87;128207;1098;24501;-75
2021/07/29 05:17:15;;;;;;;7.28;6.58;;;;;;;21.02;67.39;100092.38;128180;1095;22382;-75
2021/07/29 05:19:45;;;;;;;6.83;6.23;;;;;;;21.28;66.97;100093.61;128277;1095;22344;-75
2021/07/29 05:22:15;;;;;;;6.98;6.00;;;;;;;21.59;66.04;100100.28;128274;1095;22362;-75
2021/07/29 05:24:44;;;;;;;8.20;6.55;;;;;;;21.87;65.27;100098.55;128256;1095;22344;-74
2021/07/29 05:27:14;;;;;;;9.05;5.35;;;;;;;22.20;64.07;100105.73;128423;1094;22367;-74
2021/07/29 05:29:43;;;;;;;6.38;5.68;;;;;;;22.43;63.41;100105.47;128549;1095;22347;-75
2021/07/29 05:32:13;;;;;;;7.95;6.13;;;;;;;22.60;62.19;100109.95;128242;1095;22350;-75
2021/07/29 05:34:43;;;;;;;8.05;6.28;;;;;;;22.73;61.79;100104.98;128602;1095;22826;-77
2021/07/29 05:37:13;;;;;;;6.23;5.63;;;;;;;22.95;61.14;100107.63;128284;1095;24487;-78
2021/07/29 05:39:42;;;;;;;7.53;5.43;;;;;;;23.13;60.50;100100.27;128201;1095;25731;-75
2021/07/29 05:42:14;;;;;;;7.03;5.18;;;;;;;23.32;59.87;100106.05;128227;1095;22447;-76
2021/07/29 05:44:43;;;;;;;;;;;;;;;23.48;59.65;100095.12;128295;1095;22472;-75
2021/07/29 05:47:13;;;;;;;5.83;5.20;;;;;;;23.60;59.02;100100.33;128275;1094;22758;-78
2021/07/29 05:49:43;;;;;;;5.58;5.08;;;;;;;23.82;58.04;100097.51;128812;1095;23147;-76
2021/07/29 05:52:12;;;;;;;10.35;5.53;;;;;;;24.08;57.65;100089.55;128608;1093;22536;-77
2021/07/29 05:54:42;;;;;;;15.53;7.18;;;;;;;24.35;56.53;100092.08;128566;1094;23412;-76
2021/07/29 05:57:12;;;;;;;8.15;5.28;;;;;;;24.55;55.25;100102.16;128547;1095;22343;-77
2021/07/29 05:59:41;;;;;;;6.38;5.58;;;;;;;24.75;55.15;100102.19;128700;1094;22346;-77
2021/07/29 06:02:11;;;;;;;6.40;5.88;;;;;;;25.01;54.42;100094.13;128604;1095;22356;-77
2021/07/29 06:04:41;;;;;;;6.10;5.38;;;;;;;25.23;53.65;100096.59;128609;1095;22343;-77
2021/07/29 06:07:10;;;;;;;10.30;5.60;;;;;;;25.51;53.00;100096.02;128640;1095;24512;-77
2021/07/29 06:09:40;;;;;;;7.55;4.55;;;;;;;25.80;52.20;100098.97;128668;1095;22348;-77
2021/07/29 06:12:10;;;;;;;7.83;4.98;;;;;;;26.01;51.53;100096.19;128597;1095;22363;-77
2021/07/29 06:14:39;;;;;;;5.80;5.15;;;;;;;26.20;51.76;100094.49;128280;1095;22362;-77
2021/07/29 06:17:09;;;;;;;7.30;5.30;;;;;;;26.46;50.70;100095.18;128594;1094;22378;-77
2021/07/29 06:19:40;;;;;;;10.08;5.50;;;;;;;26.72;49.96;100101.29;128533;1094;24244;-77
2021/07/29 06:22:10;;;;;;;6.55;5.05;;;;;;;26.90;48.89;100093.58;128600;1095;22348;-76
2021/07/29 06:24:40;;;;;;;9.83;4.30;;;;;;;27.08;48.48;100086.64;128310;1095;25030;-76
2021/07/29 06:27:09;;;;;;;5.23;4.73;;;;;;;27.30;48.50;100092.45;128622;1095;22342;-76
2021/07/29 06:29:39;;;;;;;8.53;4.90;;;;;;;27.44;47.42;100093.40;128580;1095;22359;-77
2021/07/29 06:32:13;;;;;;;5.58;4.98;;;;;;;27.63;47.44;100082.63;128541;1095;22348;-77
2021/07/29 06:34:43;;;;;;;5.10;4.60;;;;;;;27.77;46.42;100085.50;128626;1095;22347;-75
2021/07/29 06:37:12;;;;;;;9.13;5.58;;;;;;;28.00;46.33;100081.16;128645;1093;22388;-75
2021/07/29 06:39:42;;;;;;;5.53;4.55;;;;;;;28.30;45.94;100088.11;128614;1095;22361;-75
2021/07/29 06:42:12;;;;;;;8.35;4.80;;;;;;;28.53;44.84;100080.23;128574;1094;22359;-76
2021/07/29 06:44:42;;;;;;;5.08;4.58;;;;;;;28.57;44.19;100083.97;128562;1095;22353;-76
2021/07/29 06:47:18;;;;;;;7.50;4.35;;;;;;;28.54;43.77;100098.94;128602;1095;22786;-75
2021/07/29 06:49:48;;;;;;;7.28;4.30;;;;;;;28.47;43.83;100092.27;128555;1095;23543;-75
2021/07/29 06:52:18;;;;;;;7.43;4.35;;;;;;;28.46;43.91;100093.34;128643;1095;22340;-75
2021/07/29 06:54:47;;;;;;;5.75;4.35;;;;;;;28.45;43.90;100097.17;128566;1093;22352;-75
2021/07/29 06:57:17;;;;;;;;;;;;;;;28.53;44.10;100097.33;128581;1095;22342;-75
2021/07/29 06:59:47;;;;;;;5.58;4.98;;;;;;;28.63;43.66;100099.09;128565;1095;22360;-75
2021/07/29 07:02:16;;;;;;;7.13;4.53;;;;;;;28.73;43.20;100092.70;128606;1095;23122;-76
2021/07/29 07:04:46;;;;;;;6.53;4.98;;;;;;;28.69;42.86;100097.92;128601;1095;24144;-75
2021/07/29 07:07:17;;;;;;;6.08;4.08;;;;;;;28.74;42.85;100089.68;128308;1095;22343;-76
2021/07/29 07:09:46;;;;;;;10.13;4.23;;;;;;;28.78;42.52;100098.85;128651;1095;22360;-75
2021/07/29 07:12:16;;;;;;;5.83;3.98;;;;;;;28.78;42.35;100107.01;128285;1095;22340;-75
2021/07/29 07:14:46;;;;;;;5.28;4.78;;;;;;;28.67;41.81;100094.69;128287;1094;22346;-75
2021/07/29 07:17:15;;;;;;;5.98;4.90;;;;;;;28.62;42.45;100100.18;128551;1095;24512;-76
2021/07/29 07:19:51;;;;;;;9.03;4.27;;;;;;;28.68;42.28;100103.64;128277;1095;22459;-76
2021/07/29 07:22:21;;;;;;;4.83;4.30;;;;;;;28.72;41.67;100096.51;128630;1095;22801;-76
2021/07/29 07:24:50;;;;;;;5.47;4.10;;;;;;;28.74;41.76;100088.88;128616;1095;24496;-76
2021/07/29 07:27:20;;;;;;;7.00;4.20;;;;;;;28.75;41.58;100087.77;128373;1095;22369;-76
2021/07/29 07:29:50;;;;;;;7.30;3.80;;;;;;;28.79;42.49;100077.91;128303;1095;24480;-75
2021/07/29 07:32:19;;;;;;;4.37;3.67;;;;;;;28.96;41.66;100078.20;128274;1095;24488;-76
2021/07/29 07:34:49;;;;;;;5.17;4.33;;;;;;;29.09;41.95;100076.67;128566;1094;22359;-76
2021/07/29 07:37:20;;;;;;;5.95;4.33;;;;;;;29.26;41.39;100071.46;128248;1095;22350;-75
2021/07/29 07:39:50;;;;;;;8.38;4.78;;;;;;;29.37;41.21;100076.72;128542;1095;22343;-75
2021/07/29 07:42:20;;;;;;;5.45;4.40;;;;;;;29.55;40.87;100063.02;128566;1095;22382;-75
2021/07/29 07:44:56;;;;;;;4.63;3.78;;;;;;;29.67;40.64;100064.48;128262;1095;24496;-75
2021/07/29 07:47:28;;;;;;;3.53;3.23;;;;;;;29.85;39.92;100074.45;128288;1095;22349;-76
2021/07/29 07:49:58;;;;;;;4.60;4.18;;;;;;;30.06;39.75;100071.30;128599;1095;23113;-75
2021/07/29 07:52:28;;;;;;;5.20;4.07;;;;;;;30.12;39.01;100064.64;128559;1093;22630;-75
2021/07/29 07:54:58;;;;;;;4.88;4.13;;;;;;;30.13;39.10;100063.55;128559;1095;22344;-75
2021/07/29 07:57:28;;;;;;;3.93;3.53;;;;;;;30.19;38.47;100065.89;128617;1095;24316;-76
2021/07/29 07:59:58;;;;;;;4.45;3.30;;;;;;;30.21;38.59;100058.20;128624;1095;22381;-75
2021/07/29 08:02:28;;;;;;;5.65;4.73;;;;;;;30.22;38.26;100065.28;128597;1095;22350;-77
2021/07/29 08:04:58;;;;;;;6.88;3.80;;;;;;;30.24;38.14;100065.77;128261;1095;22358;-76
2021/07/29 08:07:28;;;;;;;5.15;3.70;;;;;;;30.31;38.28;100059.89;128281;1095;22394;-75
2021/07/29 08:09:57;;;;;;;4.88;3.28;;;;;;;30.49;38.20;100066.33;128562;1093;24485;-76
2021/07/29 08:12:27;;;;;;;3.93;3.00;;;;;;;30.66;37.69;100060.21;128656;1095;24963;-75
2021/07/29 08:14:57;;;;;;;4.08;3.10;;;;;;;30.74;37.24;100067.64;128681;1095;22360;-76
2021/07/29 08:17:27;;;;;;;6.05;2.78;;;;;;;30.82;37.28;100064.18;128605;1094;25069;-76
2021/07/29 08:19:56;;;;;;;4.60;3.08;;;;;;;30.93;36.80;100051.92;128572;1095;24495;-76
2021/07/29 08:22:26;;;;;;;4.55;2.90;;;;;;;31.08;36.76;100055.38;128555;1094;24509;-76
2021/07/29 08:24:57;;;;;;;3.83;3.15;;;;;;;31.23;36.32;100057.72;128536;1095;22406;-76
2021/07/29 08:27:27;;;;;;;6.53;4.10;;;;;;;31.03;35.86;100063.70;128600;1095;22341;-76
2021/07/29 08:29:56;;;;;;;2.75;2.33;;;;;;;31.05;35.88;100056.80;128604;1095;22353;-76
2021/07/29 08:32:28;;;;;;;4.48;2.73;;;;;;;31.07;35.44;100051.84;128602;1095;22332;-76
2021/07/29 08:34:58;;;;;;;4.38;2.65;;;;;;;31.15;35.95;100045.63;128692;1093;22345;-75
2021/07/29 08:37:27;;;;;;;7.30;2.70;;;;;;;31.22;35.41;100047.91;128530;1095;22381;-75
2021/07/29 08:39:57;;;;;;;6.15;2.93;;;;;;;31.14;35.36;100044.02;128560;1094;22352;-74
2021/07/29 08:42:27;;;;;;;2.20;2.00;;;;;;;31.27;34.63;100044.25;128590;1095;22378;-74
2021/07/29 08:45:01;;;;;;;4.40;2.58;;;;;;;31.35;34.21;100038.05;128249;1095;22362;-77
2021/07/29 08:47:33;;;;;;;3.33;2.10;;;;;;;31.39;34.10;100048.04;128249;1095;22347;-77
2021/07/29 08:50:07;;;;;;;7.63;2.73;;;;;;;31.48;33.58;100044.53;128382;1095;24486;-83
2021/07/29 08:52:40;;;;;;;3.50;2.45;;;;;;;31.51;33.89;100041.17;128529;1095;22348;-76
2021/07/29 08:55:09;;;;;;;7.20;2.60;;;;;;;31.41;33.24;100048.52;128240;1095;22365;-77
2021/07/29 08:57:40;;;;;;;4.53;2.40;;;;;;;31.27;33.55;100041.52;128269;1095;25012;-76
2021/07/29 09:00:13;;;;;;;3.95;2.30;;;;;;;31.26;33.40;100037.99;128802;1094;23259;-78
2021/07/29 09:02:43;;;;;;;5.08;2.55;;;;;;;31.23;33.95;100041.34;128249;1094;22894;-78
2021/07/29 09:05:21;;;;;;;2.60;2.40;;;;;;;31.30;33.72;100040.90;128268;1095;22386;-78
2021/07/29 09:08:07;;;;;;;3.63;2.75;;;;;;;31.36;33.66;100037.75;128500;1095;22677;-77
2021/07/29 09:10:42;;;;;;;2.40;2.20;;;;;;;31.35;33.35;100038.84;128506;1095;22348;-78
2021/07/29 09:13:16;;;;;;;3.63;2.13;;;;;;;31.36;33.32;100040.48;128482;1095;22794;-76
2021/07/29 09:16:08;;;;;;;3.55;2.38;;;;;;;31.41;33.28;100047.71;128533;1095;23163;-78
2021/07/29 09:18:39;;;;;;;3.50;1.98;;;;;;;31.54;33.26;100046.80;128474;1095;24496;-78
2021/07/29 09:21:16;;;;;;;4.53;2.50;;;;;;;31.77;32.76;100044.00;128330;1095;22341;-78
2021/07/29 09:24:08;;;;;;;6.03;2.70;;;;;;;31.97;32.29;100037.97;128783;1095;22353;-78
2021/07/29 09:26:57;;;;;;;2.78;2.20;;;;;;;31.82;32.13;100041.10;128318;1094;24158;-78
2021/07/29 09:29:29;;;;;;;3.03;2.35;;;;;;;31.51;32.45;100046.63;128236;1095;22351;-78
2021/07/29 09:32:12;;;;;;;2.58;2.38;;;;;;;31.34;32.81;100037.25;128263;1095;22353;-77
2021/07/29 09:34:52;;;;;;;3.78;2.23;;;;;;;31.29;33.05;100040.09;128295;1094;24491;-78
2021/07/29 09:37:22;;;;;;;3.67;1.90;;;;;;;31.43;32.41;100041.95;128320;1095;22664;-77
2021/07/29 09:40:01;;;;;;;6.00;2.60;;;;;;;31.32;32.49;100038.64;128600;1095;22347;-78
2021/07/29 09:42:31;;;;;;;7.60;2.83;;;;;;;30.94;32.70;100037.16;128621;1095;23245;-77
2021/07/29 09:45:01;;;;;;;5.80;2.93;;;;;;;30.58;33.25;100041.84;128618;1095;22443;-77
2021/07/29 09:47:35;;;;;;;3.78;2.73;;;;;;;30.19;32.98;100035.09;128561;1095;22790;-77
2021/07/29 09:50:07;;;;;;;4.33;2.25;;;;;;;29.77;33.51;100051.47;128229;1095;22784;-77
2021/07/29 09:52:39;;;;;;;4.73;2.63;;;;;;;29.36;33.92;100048.71;128521;1095;22447;-77
2021/07/29 09:55:09;;;;;;;4.33;2.75;;;;;;;29.22;34.98;100039.70;128605;1095;22356;-78
2021/07/29 09:57:39;;;;;;;6.20;2.70;;;;;;;29.46;35.04;100039.55;129107;1095;22359;-78
2021/07/29 10:00:09;;;;;;;2.93;2.38;;;;;;;29.77;34.06;100042.50;128282;1095;25011;-78
2021/07/29 10:02:42;;;;;;;6.63;3.53;;;;;;;30.00;34.02;100037.95;128547;1095;22400;-80
2021/07/29 10:05:16;;;;;;;3.50;2.23;;;;;;;30.03;33.21;100045.51;128525;1093;22380;-78
2021/07/29 10:07:54;;;;;;;5.18;2.65;;;;;;;29.76;33.71;100043.63;128521;1094;23503;-78
2021/07/29 10:10:26;;;;;;;3.10;2.30;;;;;;;29.70;33.72;100034.73;128281;1095;22359;-77
2021/07/29 10:12:55;;;;;;;5.18;2.55;;;;;;;29.47;33.44;100041.96;128367;1095;22346;-75
2021/07/29 10:15:46;;;;;;;6.67;3.00;;;;;;;29.11;34.01;100043.72;128271;1095;22347;-76
2021/07/29 10:18:16;;;;;;;17.65;3.38;;;;;;;28.73;34.37;100041.06;128227;1093;22347;-75
2021/07/29 10:20:46;;;;;;;12.30;2.78;;;;;;;28.54;35.25;100031.00;128124;1098;22364;-74
2021/07/29 10:23:18;;;;;;;8.75;3.35;;;;;;;28.81;35.55;100034.94;128108;1098;22429;-74
2021/07/29 10:26:03;;;;;;;7.43;2.80;;;;;;;29.15;34.81;100034.65;128173;1098;22359;-74
2021/07/29 10:28:38;;;;;;;3.67;2.57;;;;;;;29.08;33.92;100034.23;128132;1096;22816;-73
2021/07/29 10:31:10;;;;;;;2.60;2.40;;;;;;;28.91;34.07;100021.17;127941;1098;22443;-73
2021/07/29 10:33:42;;;;;;;3.85;2.90;;;;;;;28.96;34.19;100021.10;128187;1098;22790;-74
2021/07/29 10:36:48;;;;;;;3.13;2.45;;;;;;;29.15;34.33;100021.05;128181;1098;23882;-74
2021/07/29 10:39:18;;;;;;;6.23;2.95;;;;;;;29.29;34.07;100013.73;128332;1095;22397;-74
2021/07/29 10:41:51;;;;;;;3.35;2.63;;;;;;;29.39;33.92;100007.30;128605;1093;23302;-74
2021/07/29 10:44:42;;;;;;;4.63;2.78;;;;;;;29.44;33.57;100004.46;128550;1095;22344;-74
2021/07/29 10:47:14;;;;;;;5.55;2.85;;;;;;;29.37;33.88;100008.70;128657;1093;22363;-74
2021/07/29 10:50:05;;;;;;;6.10;3.30;;;;;;;29.28;33.51;100009.38;128251;1093;23108;-74
2021/07/29 10:52:36;;;;;;;5.95;3.20;;;;;;;29.27;33.63;100004.26;128206;1098;22348;-73
2021/07/29 10:55:09;;;;;;;3.13;2.25;;;;;;;29.21;33.13;99994.58;127995;1098;23152;-73
2021/07/29 10:57:40;;;;;;;4.38;2.13;;;;;;;29.12;33.04;99994.45;127986;1098;22359;-73
2021/07/29 11:00:10;;;;;;;4.58;2.70;;;;;;;29.02;33.26;99990.03;127871;1101;25001;-75
2021/07/29 11:02:47;;;;;;;6.08;3.33;;;;;;;28.97;33.84;100000.15;127883;1101;22388;-74
2021/07/29 11:05:21;;;;;;;3.63;2.58;;;;;;;28.91;34.04;99993.98;127995;1098;22355;-73
2021/07/29 11:07:51;;;;;;;3.28;2.30;;;;;;;28.88;34.06;100001.94;127922;1101;24252;-73
2021/07/29 11:10:24;;;;;;;3.40;2.48;;;;;;;28.77;34.06;99990.44;127942;1098;24514;-74
2021/07/29 11:12:57;;;;;;;5.10;2.53;;;;;;;28.68;34.53;99987.58;127905;1099;23142;-73
2021/07/29 11:15:27;;;;;;;6.93;2.87;;;;;;;28.54;34.93;99990.25;127892;1098;22357;-73
2021/07/29 11:18:09;;;;;;;2.83;2.50;;;;;;;28.52;34.91;99992.44;127915;1098;22758;-73
2021/07/29 11:20:39;;;;;;;6.00;2.73;;;;;;;28.51;35.08;99995.47;128002;1098;22375;-74
2021/07/29 11:23:13;;;;;;;3.40;2.83;;;;;;;28.51;35.08;99995.47;127969;1098;22364;-73
2021/07/29 11:25:59;;;;;;;2.93;2.63;;;;;;;28.46;35.14;99992.81;128019;1098;22379;-73
2021/07/29 11:28:29;;;;;;;6.63;4.48;;;;;;;28.37;35.63;99996.19;128070;1098;22447;-75
2021/07/29 11:31:20;;;;;;;4.85;3.70;;;;;;;28.20;34.92;99986.95;128311;1095;23107;-75
2021/07/29 11:33:50;;;;;;;5.13;4.05;;;;;;;28.08;35.03;99990.89;128308;1095;22402;-74